Claymont, Delaware
Current Conditions -  °F | °C
As of 4:51 AM on Saturday 22 Nov 2014 (Local Time) from KILG Reporting Station
Clear Clear  
Wind Chill: -6°   Ceiling: Unl
Heat Index: -6°   Visibility: 10mi
Dew Point: -11°   Wind: 0mph
Humidity: 66%   Direction: NA
Pressure: 30.53"   Gusts: NA
Location:  39.8°N, 75.46°W
Report Text: KILG 220951Z 00000KT 10SM CLR M06/M11 A3053 RMK AO2 SLP340 T10561111
Loading
Personal Weather Stations






























Interactive Weather Map New forecast layout! Learn more

10-Day Weather Forecast

Advertisements
Track Severe Weather on mobile